Time;durP1;ratioP1;P1;durP2;ratioP2;P2;SDS_P1;SDS_P2;PMS_P1;PMS_P2;Temp;Humidity;BMP_temperature;BMP_pressure;BME280_temperature;BME280_humidity;BME280_pressure;Samples;Min_cycle;Max_cycle;Signal;HPM_P1;HPM_P2
2023/08/16 04:41:50;;;;;;;6.30;4.80;;;;;;;20.25;100.00;100820.23;110038;1249;22485;-42
2023/08/16 04:44:17;;;;;;;9.00;5.40;;;;;;;20.38;100.00;100814.48;110946;1249;22490;-40
2023/08/16 04:46:44;;;;;;;10.00;5.20;;;;;;;20.57;100.00;100814.80;110169;1249;22521;-41
2023/08/16 04:49:11;;;;;;;10.90;5.70;;;;;;;20.76;100.00;100813.80;110672;1249;22509;-47
2023/08/16 04:51:38;;;;;;;7.70;5.30;;;;;;;20.93;100.00;100811.61;110109;1249;22504;-48
2023/08/16 04:54:07;;;;;;;11.80;5.00;;;;;;;21.10;100.00;100807.30;110141;1249;24125;-46
2023/08/16 04:56:35;;;;;;;8.30;4.90;;;;;;;21.27;100.00;100808.66;109958;1248;22516;-48
2023/08/16 04:59:02;;;;;;;8.80;5.40;;;;;;;21.44;100.00;100812.15;110272;1249;24175;-42
2023/08/16 05:01:29;;;;;;;7.00;5.10;;;;;;;21.60;100.00;100809.95;109959;1249;22513;-41
2023/08/16 05:03:59;;;;;;;8.70;5.30;;;;;;;21.76;100.00;100809.14;110325;1249;24830;-42
2023/08/16 05:06:26;;;;;;;9.60;5.60;;;;;;;21.91;99.92;100806.09;110295;1248;24375;-41
2023/08/16 05:08:54;;;;;;;8.50;4.70;;;;;;;22.08;99.26;100807.76;110468;1249;24248;-47
2023/08/16 05:11:21;;;;;;;9.10;5.10;;;;;;;22.22;98.74;100815.02;110380;1248;22486;-42
2023/08/16 05:13:48;;;;;;;9.70;5.70;;;;;;;22.36;98.24;100813.59;110736;1249;23240;-47
2023/08/16 05:16:15;;;;;;;9.30;5.80;;;;;;;22.49;97.49;100814.27;112561;1249;22667;-44
2023/08/16 05:18:42;;;;;;;15.10;5.70;;;;;;;22.66;97.25;100818.02;113016;1249;22509;-43
2023/08/16 05:21:09;;;;;;;7.80;5.10;;;;;;;22.80;96.94;100817.59;111752;1249;23847;-42
2023/08/16 05:23:36;;;;;;;5.20;4.70;;;;;;;22.96;95.62;100818.04;112850;1248;22489;-43
2023/08/16 05:26:03;;;;;;;10.30;5.60;;;;;;;23.12;94.84;100820.17;113039;1248;22794;-43
2023/08/16 05:28:30;;;;;;;14.80;5.80;;;;;;;23.28;94.24;100821.23;111998;1249;25248;-42
2023/08/16 05:31:10;;;;;;;11.30;5.90;;;;;;;23.44;94.14;100821.23;111251;1248;25391;-43
2023/08/16 05:33:38;;;;;;;8.30;5.30;;;;;;;23.58;93.98;100817.41;112938;1249;22421;-43
2023/08/16 05:36:05;;;;;;;10.20;6.50;;;;;;;23.70;94.37;100816.38;113061;1249;22392;-48
2023/08/16 05:38:35;;;;;;;10.00;6.10;;;;;;;23.77;94.37;100814.58;112901;1249;22423;-47
2023/08/16 05:41:05;;;;;;;6.40;5.80;;;;;;;23.90;94.21;100811.30;112491;1249;22278;-44
2023/08/16 05:43:33;;;;;;;7.80;5.90;;;;;;;24.04;94.72;100808.49;111520;1249;22593;-43
2023/08/16 05:46:00;;;;;;;14.40;6.20;;;;;;;24.20;95.09;100811.48;110780;1249;24774;-46
2023/08/16 05:48:27;;;;;;;7.40;5.00;;;;;;;24.38;95.05;100811.17;113004;1248;22971;-42
2023/08/16 05:50:54;;;;;;;6.30;5.70;;;;;;;24.54;94.42;100811.45;112979;1249;22382;-42
2023/08/16 05:53:21;;;;;;;9.60;5.30;;;;;;;24.70;94.27;100809.03;112962;1249;22366;-42
2023/08/16 05:55:48;;;;;;;9.20;5.40;;;;;;;24.86;93.40;100808.60;112962;1249;22977;-42
2023/08/16 05:58:18;;;;;;;6.50;4.80;;;;;;;25.01;91.77;100806.19;111666;1248;22620;-46
2023/08/16 06:00:55;;;;;;;7.50;4.90;;;;;;;25.19;89.92;100805.81;112680;1248;22433;-46
2023/08/16 06:03:26;;;;;;;12.40;5.10;;;;;;;25.35;88.19;100806.77;112347;1249;22720;-46
2023/08/16 06:06:04;;;;;;;6.80;4.80;;;;;;;25.52;86.96;100804.07;112407;1249;22498;-42
2023/08/16 06:08:34;;;;;;;11.20;5.40;;;;;;;25.67;86.59;100796.60;111205;1249;22501;-46
2023/08/16 06:11:04;;;;;;;7.50;4.80;;;;;;;25.82;86.50;100795.27;111276;1249;22495;-48
2023/08/16 06:13:41;;;;;;;9.90;5.60;;;;;;;25.98;85.88;100794.05;111439;1249;24188;-42
2023/08/16 06:16:08;;;;;;;5.40;4.90;;;;;;;26.12;85.74;100793.41;110898;1249;22525;-41
2023/08/16 06:18:36;;;;;;;8.50;5.60;;;;;;;26.26;85.03;100794.23;111513;1249;24119;-46
2023/08/16 06:21:05;;;;;;;6.70;4.90;;;;;;;26.41;84.79;100792.52;111380;1249;22493;-43
2023/08/16 06:23:32;;;;;;;10.00;5.40;;;;;;;26.54;84.17;100791.58;112881;1249;22448;-47
2023/08/16 06:26:00;;;;;;;8.80;5.00;;;;;;;26.65;83.31;100791.27;112966;1248;23083;-46
2023/08/16 06:28:27;;;;;;;9.70;5.40;;;;;;;26.76;82.99;100794.55;112596;1248;22392;-43
2023/08/16 06:30:54;;;;;;;5.60;4.80;;;;;;;26.88;81.47;100790.42;112733;1249;22421;-43
2023/08/16 06:33:22;;;;;;;10.90;4.90;;;;;;;26.98;80.64;100786.07;112856;1249;22365;-42
2023/08/16 06:35:51;;;;;;;5.60;5.00;;;;;;;27.09;79.49;100786.88;112698;1249;22637;-43
2023/08/16 06:38:20;;;;;;;9.10;5.60;;;;;;;27.19;78.40;100787.14;112559;1249;22448;-42
2023/08/16 06:40:49;;;;;;;8.60;5.00;;;;;;;27.29;77.65;100786.89;112737;1248;22398;-43
2023/08/16 06:43:17;;;;;;;10.70;5.40;;;;;;;27.37;77.14;100783.53;112717;1248;23394;-43
2023/08/16 06:45:44;;;;;;;6.30;5.40;;;;;;;27.41;76.66;100782.17;112511;1249;23190;-47
2023/08/16 06:48:11;;;;;;;6.50;5.70;;;;;;;27.45;75.62;100778.37;112858;1249;23147;-47
2023/08/16 06:50:39;;;;;;;6.50;5.20;;;;;;;27.49;75.85;100780.59;112888;1249;23101;-47
2023/08/16 06:53:06;;;;;;;5.80;5.30;;;;;;;27.55;75.98;100782.36;112864;1249;22381;-47
2023/08/16 06:55:35;;;;;;;5.80;5.30;;;;;;;27.60;75.68;100777.41;112881;1248;23169;-47
2023/08/16 06:58:05;;;;;;;6.80;5.00;;;;;;;27.70;75.96;100774.87;112910;1249;22677;-42
2023/08/16 07:00:32;;;;;;;6.60;4.50;;;;;;;27.77;75.43;100770.78;112763;1249;22477;-42
2023/08/16 07:03:03;;;;;;;9.00;5.30;;;;;;;27.82;73.89;100768.30;112928;1248;22151;-43
2023/08/16 07:05:30;;;;;;;5.90;4.60;;;;;;;27.89;73.38;100768.45;112929;1248;22918;-43
2023/08/16 07:07:57;;;;;;;6.30;4.30;;;;;;;28.00;72.98;100767.17;112884;1249;22893;-47
2023/08/16 07:10:24;;;;;;;8.10;4.50;;;;;;;28.09;71.15;100768.38;112961;1249;22427;-47
2023/08/16 07:12:51;;;;;;;5.40;3.80;;;;;;;28.17;69.44;100766.22;112885;1249;22413;-47
2023/08/16 07:15:18;;;;;;;9.40;4.20;;;;;;;28.26;69.06;100764.71;112993;1249;23201;-47
2023/08/16 07:17:45;;;;;;;7.70;4.70;;;;;;;28.36;69.17;100765.73;112997;1248;22223;-47
2023/08/16 07:20:12;;;;;;;6.90;4.20;;;;;;;28.43;68.27;100761.87;113021;1249;22383;-48
2023/08/16 07:22:39;;;;;;;6.80;3.70;;;;;;;28.45;65.61;100764.00;113007;1249;23013;-48
2023/08/16 07:25:07;;;;;;;3.80;3.40;;;;;;;28.46;65.91;100758.38;112398;1249;22632;-48
2023/08/16 07:27:34;;;;;;;5.00;3.80;;;;;;;28.53;66.25;100757.23;111688;1249;22518;-47
2023/08/16 07:30:04;;;;;;;7.20;3.60;;;;;;;28.56;66.25;100759.34;112977;1249;22407;-47
2023/08/16 07:32:35;;;;;;;6.10;4.00;;;;;;;28.58;65.17;100753.26;112672;1248;208043;-49
2023/08/16 07:35:03;;;;;;;6.40;4.10;;;;;;;28.64;64.18;100754.11;111411;1249;23250;-47
2023/08/16 07:37:34;;;;;;;3.80;3.40;;;;;;;28.72;63.37;100755.39;112959;1248;23024;-47
2023/08/16 07:40:01;;;;;;;3.80;3.40;;;;;;;28.74;61.02;100753.63;112475;1249;22397;-47
2023/08/16 07:42:28;;;;;;;3.50;3.20;;;;;;;28.77;61.41;100748.95;112197;1249;22493;-43
2023/08/16 07:44:57;;;;;;;6.20;3.80;;;;;;;28.81;61.02;100746.84;112601;1249;22419;-42
2023/08/16 07:47:25;;;;;;;4.30;3.90;;;;;;;28.85;61.47;100746.05;112645;1249;24249;-44
2023/08/16 07:49:52;;;;;;;4.50;3.30;;;;;;;28.90;61.56;100746.77;111441;1249;22417;-43
2023/08/16 07:52:18;;;;;;;6.40;3.80;;;;;;;28.94;60.85;100746.92;112395;1249;23295;-42
2023/08/16 07:54:45;;;;;;;9.00;4.00;;;;;;;28.97;60.77;100748.65;112397;1249;22412;-48
2023/08/16 07:57:14;;;;;;;13.30;3.70;;;;;;;29.07;60.55;100747.96;112903;1249;22265;-48
2023/08/16 07:59:41;;;;;;;6.40;3.40;;;;;;;29.14;60.30;100750.09;112903;1249;22508;-47
2023/08/16 08:02:08;;;;;;;6.20;3.60;;;;;;;29.19;59.77;100747.63;112505;1249;23313;-43
2023/08/16 08:04:36;;;;;;;6.90;4.00;;;;;;;29.27;59.89;100745.68;112604;1248;22555;-49
2023/08/16 08:07:04;;;;;;;4.50;3.90;;;;;;;29.35;60.42;100741.80;112497;1249;22268;-43
2023/08/16 08:09:34;;;;;;;4.30;3.90;;;;;;;29.43;60.62;100743.38;112954;1249;22939;-43
2023/08/16 08:12:01;;;;;;;5.30;4.00;;;;;;;29.50;60.35;100741.48;112453;1249;22403;-43
2023/08/16 08:14:28;;;;;;;6.10;4.00;;;;;;;29.56;59.60;100738.93;112952;1248;23196;-42
2023/08/16 08:16:55;;;;;;;6.50;4.00;;;;;;;29.55;59.42;100741.30;112920;1249;22277;-43
2023/08/16 08:19:23;;;;;;;7.10;3.70;;;;;;;29.55;58.68;100745.08;112961;1249;22400;-44
2023/08/16 08:21:51;;;;;;;6.60;4.00;;;;;;;29.57;59.06;100744.08;112973;1249;22464;-43
2023/08/16 08:24:18;;;;;;;8.10;4.20;;;;;;;29.57;59.43;100744.95;112961;1249;22376;-43
2023/08/16 08:26:47;;;;;;;7.70;4.60;;;;;;;29.51;59.74;100738.86;112990;1249;22460;-44
2023/08/16 08:29:15;;;;;;;8.20;6.50;;;;;;;29.51;59.47;100741.40;112575;1249;22540;-44
2023/08/16 08:31:42;;;;;;;9.80;8.20;;;;;;;29.48;59.67;100739.85;112988;1249;22453;-43
2023/08/16 08:34:09;;;;;;;14.60;10.60;;;;;;;29.46;60.39;100745.92;112907;1249;23059;-43
2023/08/16 08:36:37;;;;;;;9.80;6.50;;;;;;;29.41;59.55;100746.21;112963;1249;23001;-43
2023/08/16 08:39:04;;;;;;;5.60;5.00;;;;;;;29.28;59.09;100747.71;112964;1249;22413;-43
2023/08/16 08:41:32;;;;;;;6.80;3.60;;;;;;;29.26;60.16;100743.73;113013;1249;23140;-44
2023/08/16 08:44:17;;;;;;;8.50;4.20;;;;;;;29.34;60.20;100743.32;112939;1249;22353;-43
2023/08/16 08:46:47;;;;;;;6.10;4.10;;;;;;;29.40;59.51;100741.13;112971;1249;22465;-43
2023/08/16 08:49:15;;;;;;;8.00;3.80;;;;;;;29.45;59.13;100739.31;112998;1249;22409;-43
2023/08/16 08:51:42;;;;;;;5.40;3.10;;;;;;;29.60;58.63;100737.17;113004;1248;23354;-43
2023/08/16 08:54:09;;;;;;;10.10;3.80;;;;;;;29.79;58.58;100737.06;112958;1249;23390;-43
2023/08/16 08:56:36;;;;;;;5.00;3.70;;;;;;;29.99;57.72;100732.88;112947;1249;22902;-43
2023/08/16 08:59:03;;;;;;;3.60;3.30;;;;;;;30.17;57.72;100734.27;113015;1249;22297;-42
2023/08/16 09:01:34;;;;;;;4.90;3.70;;;;;;;30.34;57.69;100732.45;112659;1249;22650;-43
2023/08/16 09:04:04;;;;;;;5.90;3.40;;;;;;;30.50;56.77;100732.67;112976;1249;22444;-43
2023/08/16 09:06:32;;;;;;;6.00;3.50;;;;;;;30.56;55.87;100734.55;112949;1249;22402;-43
2023/08/16 09:08:59;;;;;;;5.10;3.40;;;;;;;30.58;55.99;100731.34;112943;1249;23047;-43
2023/08/16 09:11:26;;;;;;;4.40;3.70;;;;;;;30.57;55.50;100734.27;112547;1249;22307;-43
2023/08/16 09:13:53;;;;;;;4.50;3.50;;;;;;;30.39;55.13;100728.63;112857;1249;22369;-43
2023/08/16 09:16:20;;;;;;;5.30;3.00;;;;;;;30.19;55.70;100726.52;112796;1249;22376;-44
2023/08/16 09:18:48;;;;;;;8.10;3.30;;;;;;;30.13;55.56;100723.55;113000;1249;22346;-43
2023/08/16 09:21:24;;;;;;;3.90;3.00;;;;;;;30.11;56.08;100723.54;112869;1249;22471;-43
2023/08/16 09:23:55;;;;;;;8.30;3.50;;;;;;;30.11;56.26;100722.96;112974;1249;22879;-44
2023/08/16 09:26:26;;;;;;;6.00;3.10;;;;;;;30.16;56.60;100722.30;112661;1249;22497;-44
2023/08/16 09:29:00;;;;;;;7.70;3.60;;;;;;;30.23;56.56;100720.52;112981;1249;22237;-44
2023/08/16 09:31:30;;;;;;;5.60;3.30;;;;;;;30.19;55.72;100722.96;112879;1249;22524;-48
2023/08/16 09:34:01;;;;;;;6.80;3.60;;;;;;;30.13;55.59;100718.20;112970;1249;23259;-43
2023/08/16 09:36:29;;;;;;;8.40;3.70;;;;;;;30.16;55.92;100718.84;112970;1249;22395;-44
2023/08/16 09:39:05;;;;;;;8.50;3.40;;;;;;;30.19;56.08;100717.54;112955;1249;22298;-49
2023/08/16 09:41:32;;;;;;;4.60;3.50;;;;;;;30.27;55.53;100716.05;112896;1249;23239;-48
2023/08/16 09:44:17;;;;;;;6.30;3.80;;;;;;;30.35;55.35;100710.02;112320;1249;24400;-44
2023/08/16 09:46:45;;;;;;;7.30;3.70;;;;;;;30.38;55.09;100706.41;112386;1249;22489;-43
2023/08/16 09:49:15;;;;;;;3.90;3.30;;;;;;;30.41;55.35;100703.81;113016;1249;23123;-44
2023/08/16 09:51:42;;;;;;;9.20;4.30;;;;;;;30.43;55.46;100706.88;112828;1249;22439;-43
2023/08/16 09:54:13;;;;;;;6.50;3.70;;;;;;;30.49;54.88;100706.64;112981;1249;22379;-43
2023/08/16 09:56:40;;;;;;;4.90;3.70;;;;;;;30.55;54.92;100706.74;112976;1249;23182;-48
2023/08/16 09:59:28;;;;;;;5.90;3.20;;;;;;;30.58;54.61;100712.21;112988;1249;22228;-47
2023/08/16 10:01:58;;;;;;;3.60;3.30;;;;;;;30.56;54.15;100706.27;111896;1249;22533;-42
2023/08/16 10:04:29;;;;;;;7.20;3.60;;;;;;;30.58;53.81;100704.88;111722;1249;22405;-43
2023/08/16 10:06:58;;;;;;;6.90;3.70;;;;;;;30.57;52.88;100705.84;113001;1248;22431;-43
2023/08/16 10:09:29;;;;;;;6.80;4.00;;;;;;;30.55;52.28;100707.98;112961;1249;23183;-43
2023/08/16 10:11:56;;;;;;;6.90;3.50;;;;;;;30.57;51.96;100706.59;112766;1249;22378;-44
2023/08/16 10:14:22;;;;;;;8.40;3.70;;;;;;;30.53;52.24;100705.40;112677;1249;22472;-43
2023/08/16 10:16:50;;;;;;;11.50;3.50;;;;;;;30.50;51.99;100704.92;111650;1249;22532;-43
2023/08/16 10:19:17;;;;;;;9.60;3.20;;;;;;;30.46;51.19;100702.36;111818;1249;22508;-47
2023/08/16 10:21:46;;;;;;;3.20;3.00;;;;;;;30.44;50.90;100701.24;111395;1249;24227;-44
2023/08/16 10:24:13;;;;;;;4.30;3.60;;;;;;;30.53;51.08;100699.51;112746;1249;22325;-44
2023/08/16 10:26:40;;;;;;;4.30;3.20;;;;;;;30.64;50.66;100696.84;112981;1249;22392;-44
2023/08/16 10:29:09;;;;;;;4.60;3.10;;;;;;;30.79;50.29;100696.76;112798;1248;22378;-48
2023/08/16 10:31:41;;;;;;;6.60;3.00;;;;;;;31.00;49.86;100694.05;112716;1249;22422;-43
2023/08/16 10:34:08;;;;;;;7.10;2.90;;;;;;;31.27;49.28;100689.36;112470;1249;22513;-43
2023/08/16 10:36:35;;;;;;;4.20;3.10;;;;;;;31.52;48.60;100685.16;112680;1249;22188;-47
2023/08/16 10:39:03;;;;;;;4.90;3.20;;;;;;;31.73;47.78;100689.73;111071;1249;25368;-42
2023/08/16 10:41:39;;;;;;;6.10;3.40;;;;;;;31.99;47.09;100686.77;110141;1249;24233;-44
2023/08/16 10:44:07;;;;;;;5.50;3.20;;;;;;;32.25;46.43;100682.52;110679;1249;22519;-48
2023/08/16 10:46:35;;;;;;;6.00;3.00;;;;;;;32.45;45.91;100681.61;112121;1249;25328;-48
2023/08/16 10:49:06;;;;;;;3.40;2.70;;;;;;;32.67;45.13;100673.16;111732;1249;25307;-47
2023/08/16 10:51:43;;;;;;;4.60;2.90;;;;;;;33.01;43.84;100675.51;110746;1249;23433;-43
2023/08/16 10:54:10;;;;;;;6.30;2.80;;;;;;;33.31;42.74;100672.07;112522;1249;22514;-43
2023/08/16 10:56:44;;;;;;;5.20;2.70;;;;;;;33.52;42.57;100675.23;110880;1249;22516;-43
2023/08/16 10:59:12;;;;;;;7.90;3.00;;;;;;;33.85;41.79;100665.38;111974;1249;23183;-43
2023/08/16 11:01:46;;;;;;;7.60;3.20;;;;;;;34.00;41.62;100665.49;112120;1249;22522;-43
2023/08/16 11:04:13;;;;;;;6.90;3.00;;;;;;;34.08;40.99;100661.62;111049;1249;23241;-44
2023/08/16 11:06:40;;;;;;;9.10;3.00;;;;;;;34.01;40.58;100666.27;111372;1249;24440;-46
2023/08/16 11:09:18;;;;;;;7.40;3.00;;;;;;;33.95;40.87;100662.54;110361;1249;23334;-42
2023/08/16 11:11:45;;;;;;;5.30;3.00;;;;;;;33.94;40.81;100659.14;112372;1249;24178;-43
2023/08/16 11:14:12;;;;;;;3.10;2.80;;;;;;;33.92;40.96;100655.75;110523;1249;24260;-43
2023/08/16 11:16:39;;;;;;;3.70;3.00;;;;;;;33.66;40.98;100647.38;110140;1249;24211;-48
2023/08/16 11:19:08;;;;;;;3.90;3.00;;;;;;;33.27;42.10;100650.77;111313;1249;23090;-44
